Nearby METAR Reports

 

EGTE - Exeter Airport, United Kingdom
Distance from station: S 19km
Updated: 17/05/2022 02:50
NOT Current
Few Clouds
Few Clouds
 Wind from S
Wind: S 6 km/h
Temperature: 12°C
Dew Point: 11°C
Humidity: 94%
Barometer: 1016 hPa
Clouds: Few Clouds
Visibility: 10 km
Cloud details: Few Clouds 244 m
2022/05/17 01:50 EGTE 170150Z 17003KT 9999 FEW008 12/11 Q1016
EGDY - Yeovilton (navy), United Kingdom
Distance from station: ENE 55km
Updated: 17/05/2022 04:50
Shallow fog, Partly cloudy
Shallow fog, Partly cloudy
 Wind from SE
Wind: SE 9 km/h
Temperature: 12°C
Dew Point: 11°C
Humidity: 94%
Barometer: 1017 hPa
Summary: Shallow Fog
Clouds: Partly cloudy
Visibility: 9 km
Cloud details: Partly cloudy 4572 m
2022/05/17 03:50 EGDY 170350Z 14005KT 9000 MIFG SCT150 12/11 Q1017 BLU BLU
 
EGFF - Cardiff-Wales Ar, United Kingdom
Distance from station: N 56km
Updated: 17/05/2022 04:50
Few Clouds
Few Clouds
 Wind from SE
Wind: SE 13 km/h
Temperature: 12°C
Dew Point: 12°C
Humidity: 100%
Barometer: 1016 hPa
Clouds: Few Clouds
Visibility: 7 km
Cloud details: Few Clouds 91 m
2022/05/17 03:50 EGFF 170350Z AUTO 13007KT 7000 FEW003 12/12 Q1016
EGDX - St Athan Raf, United Kingdom
Distance from station: N 58km
Updated: 01/04/2019 13:50
NOT Current
Clear
Clear
 Wind from E
Wind: E 15 km/h
Temperature: 11°C
Dew Point: 5°C
Humidity: 67%
Barometer: 1019 hPa
Clouds: Clear
Visibility: 10 km
2019/04/01 12:50 EGDX 011250Z AUTO 10008KT 9999 NCD 11/05 Q1019
 
EGGD - Bristol/Lulsgate, United Kingdom
Distance from station: NE 71km
Updated: 17/05/2022 04:50
Clear
Clear
 Wind from E
Wind: E 11 km/h
Temperature: 11°C
Dew Point: 11°C
Humidity: 100%
Barometer: 1016 hPa
Clouds: Clear
Visibility: 8 km
2022/05/17 03:50 EGGD 170350Z AUTO 10006KT 8000 NCD 11/11 Q1016